createdAt,value
2023-05-23T00:01:24.796Z,15.85
2023-05-23T00:03:31.337Z,15.79
2023-05-23T00:05:34.257Z,15.71
2023-05-23T00:07:37.175Z,15.72
2023-05-23T00:09:39.952Z,15.73
2023-05-23T00:11:45.146Z,15.82
2023-05-23T00:13:47.885Z,15.90
2023-05-23T00:15:50.719Z,15.93
2023-05-23T00:17:53.555Z,15.97
2023-05-23T00:19:57.702Z,16.00
2023-05-23T00:22:00.485Z,16.00
2023-05-23T00:24:04.575Z,15.97
2023-05-23T00:26:07.352Z,15.38
2023-05-23T00:28:10.096Z,15.96
2023-05-23T00:30:13.252Z,15.97
2023-05-23T00:32:16.009Z,15.92
2023-05-23T00:34:18.792Z,15.21
2023-05-23T00:36:24.248Z,15.64
2023-05-23T00:38:28.437Z,15.55
2023-05-23T00:40:31.227Z,15.62
2023-05-23T00:42:34.034Z,15.08
2023-05-23T00:44:36.816Z,15.36
2023-05-23T00:46:39.834Z,15.15
2023-05-23T00:48:42.735Z,15.13
2023-05-23T00:50:46.603Z,15.31
2023-05-23T00:52:51.106Z,15.23
2023-05-23T00:54:53.976Z,15.19
2023-05-23T00:56:57.011Z,15.17
2023-05-23T00:59:02.002Z,15.07
2023-05-23T01:01:05.851Z,14.95
2023-05-23T01:03:08.737Z,15.05
2023-05-23T01:05:14.393Z,14.92
2023-05-23T01:07:17.176Z,14.61
2023-05-23T01:09:24.574Z,14.69
2023-05-23T01:11:34.243Z,14.71
2023-05-23T01:13:43.224Z,14.77
2023-05-23T01:15:53.034Z,14.83
2023-05-23T01:18:03.333Z,14.85
2023-05-23T01:20:12.708Z,14.86
2023-05-23T01:22:24.507Z,14.84
2023-05-23T01:24:36.377Z,14.85
2023-05-23T01:26:58.747Z,14.64
2023-05-23T01:29:10.340Z,14.84
2023-05-23T01:31:14.184Z,14.75
2023-05-23T01:33:18.409Z,14.75
2023-05-23T01:35:27.022Z,14.75
2023-05-23T01:37:31.125Z,14.75
2023-05-23T01:39:33.939Z,14.85
2023-05-23T01:41:36.728Z,14.94
2023-05-23T01:43:39.918Z,14.78
2023-05-23T01:45:44.878Z,14.60
2023-05-23T01:47:50.247Z,14.67
2023-05-23T01:49:55.486Z,14.63
2023-05-23T01:51:58.627Z,14.68
2023-05-23T01:54:01.681Z,14.96
2023-05-23T01:56:04.911Z,14.96
2023-05-23T01:58:07.813Z,15.07
2023-05-23T02:00:12.423Z,15.21
2023-05-23T02:02:19.507Z,15.07
2023-05-23T02:04:22.850Z,15.06
2023-05-23T02:06:25.673Z,15.08
2023-05-23T02:08:28.417Z,15.06
2023-05-23T02:10:32.113Z,15.06
2023-05-23T02:12:36.843Z,15.14
2023-05-23T02:14:39.687Z,15.25
2023-05-23T02:16:42.482Z,15.41
2023-05-23T02:18:47.111Z,15.47
2023-05-23T02:20:49.844Z,15.43
2023-05-23T02:22:52.588Z,15.46
2023-05-23T02:24:55.342Z,15.40
2023-05-23T02:26:58.064Z,15.43
2023-05-23T02:29:00.823Z,15.35
2023-05-23T02:31:04.146Z,14.62
2023-05-23T02:33:07.954Z,14.91
2023-05-23T02:35:13.213Z,15.25
2023-05-23T02:37:16.778Z,15.29
2023-05-23T02:39:19.474Z,15.23
2023-05-23T02:41:23.098Z,15.29
2023-05-23T02:43:25.889Z,15.26
2023-05-23T02:45:28.696Z,15.46
2023-05-23T02:47:31.556Z,15.37
2023-05-23T02:49:34.448Z,15.41
2023-05-23T02:51:38.662Z,15.39
2023-05-23T02:53:41.492Z,15.62
2023-05-23T02:55:44.280Z,15.81
2023-05-23T02:57:47.257Z,15.75
2023-05-23T02:59:50.096Z,15.71
2023-05-23T03:01:53.233Z,15.68
2023-05-23T03:03:56.792Z,15.60
2023-05-23T03:05:59.696Z,15.83
2023-05-23T03:08:03.922Z,15.69
2023-05-23T03:10:08.205Z,15.69
2023-05-23T03:12:10.957Z,15.68
2023-05-23T03:14:13.849Z,15.70
2023-05-23T03:16:16.665Z,15.86
2023-05-23T03:18:19.402Z,15.82
2023-05-23T03:20:22.445Z,15.82
2023-05-23T03:22:25.476Z,15.86
2023-05-23T03:24:29.524Z,15.95
2023-05-23T03:26:32.405Z,15.97
2023-05-23T03:28:35.185Z,15.92
2023-05-23T03:30:37.943Z,15.54
2023-05-23T03:32:41.157Z,16.23
2023-05-23T03:34:43.977Z,16.33
2023-05-23T03:36:47.481Z,16.30
2023-05-23T03:38:50.262Z,16.34
2023-05-23T03:40:54.464Z,16.24
2023-05-23T03:43:04.662Z,16.23
2023-05-23T03:45:08.928Z,16.23
2023-05-23T03:47:12.169Z,15.94
2023-05-23T03:49:22.708Z,16.16
2023-05-23T03:51:25.487Z,15.99
2023-05-23T03:53:28.884Z,16.10
2023-05-23T03:55:33.082Z,16.21
2023-05-23T03:57:38.470Z,16.32
2023-05-23T03:59:41.290Z,16.27
2023-05-23T04:01:47.072Z,16.25
2023-05-23T04:03:50.435Z,16.24
2023-05-23T04:05:54.302Z,16.33
2023-05-23T04:07:57.624Z,16.27
2023-05-23T04:10:00.374Z,16.10
2023-05-23T04:12:03.105Z,16.25
2023-05-23T04:14:07.938Z,16.18
2023-05-23T04:16:10.752Z,15.99
2023-05-23T04:18:15.000Z,16.13
2023-05-23T04:20:19.292Z,15.71
2023-05-23T04:22:22.126Z,15.96
2023-05-23T04:24:24.932Z,15.93
2023-05-23T04:26:27.906Z,15.69
2023-05-23T04:28:31.427Z,16.11
2023-05-23T04:30:36.091Z,15.88
2023-05-23T04:32:39.105Z,15.86
2023-05-23T04:34:42.402Z,16.07
2023-05-23T04:36:45.592Z,15.84
2023-05-23T04:38:48.917Z,16.00
2023-05-23T04:40:52.642Z,15.99
2023-05-23T04:43:14.327Z,15.92
2023-05-23T04:45:26.546Z,16.13
2023-05-23T04:47:40.196Z,16.17
2023-05-23T04:49:45.007Z,15.90
2023-05-23T04:51:48.064Z,16.28
2023-05-23T04:54:09.732Z,16.21
2023-05-23T04:56:13.196Z,16.09
2023-05-23T04:58:16.210Z,16.15
2023-05-23T05:00:20.443Z,15.86
2023-05-23T05:02:23.415Z,15.82
2023-05-23T05:04:27.579Z,15.87
2023-05-23T05:06:31.024Z,16.02
2023-05-23T05:08:34.059Z,16.00
2023-05-23T05:10:36.985Z,16.07
2023-05-23T05:12:39.728Z,16.01
2023-05-23T05:14:42.973Z,15.89
2023-05-23T05:16:47.849Z,15.94
2023-05-23T05:18:51.930Z,15.84
2023-05-23T05:20:58.496Z,15.81
2023-05-23T05:23:01.272Z,15.74
2023-05-23T05:25:06.534Z,15.73
2023-05-23T05:27:11.751Z,15.56
2023-05-23T05:29:14.479Z,15.35
2023-05-23T05:31:18.975Z,15.26
2023-05-23T05:33:23.473Z,15.59
2023-05-23T05:35:29.466Z,15.50
2023-05-23T05:37:33.626Z,15.50
2023-05-23T05:39:36.361Z,15.42
2023-05-23T05:41:39.935Z,15.47
2023-05-23T05:43:42.642Z,15.29
2023-05-23T05:45:45.562Z,15.70
2023-05-23T05:47:48.615Z,15.77
2023-05-23T05:49:51.606Z,15.79
2023-05-23T05:51:54.363Z,15.61
2023-05-23T05:53:58.543Z,15.57
2023-05-23T05:56:01.625Z,15.61
2023-05-23T05:58:05.665Z,15.58
2023-05-23T06:00:22.875Z,15.48
2023-05-23T06:02:32.054Z,15.57
2023-05-23T06:04:34.933Z,15.54
2023-05-23T06:06:37.812Z,15.60
2023-05-23T06:08:40.999Z,15.32
2023-05-23T06:10:48.513Z,15.45
2023-05-23T06:12:51.507Z,15.66
2023-05-23T06:14:54.822Z,15.71
2023-05-23T06:16:57.617Z,15.81
2023-05-23T06:19:00.454Z,15.59
2023-05-23T06:21:05.573Z,15.72
2023-05-23T06:23:10.080Z,15.97
2023-05-23T06:25:15.449Z,15.59
2023-05-23T06:27:19.557Z,16.09
2023-05-23T06:29:22.698Z,16.21
2023-05-23T06:31:25.552Z,16.10
2023-05-23T06:33:29.226Z,16.12
2023-05-23T06:35:32.416Z,16.07
2023-05-23T06:37:37.109Z,15.88
2023-05-23T06:39:39.849Z,15.92
2023-05-23T06:41:44.631Z,15.61
2023-05-23T06:43:48.751Z,16.02
2023-05-23T06:45:58.875Z,15.92
2023-05-23T06:48:04.651Z,16.12
2023-05-23T06:50:10.033Z,16.10
2023-05-23T06:52:13.143Z,16.21
2023-05-23T06:54:16.038Z,16.44
2023-05-23T06:56:24.440Z,16.21
2023-05-23T06:58:32.334Z,16.46
2023-05-23T07:00:39.474Z,16.38
2023-05-23T07:02:52.036Z,16.47
2023-05-23T07:04:57.417Z,16.63
2023-05-23T07:07:22.449Z,16.73
2023-05-23T07:09:26.143Z,16.49
2023-05-23T07:11:39.550Z,16.74
2023-05-23T07:13:42.706Z,16.92
2023-05-23T07:15:52.344Z,17.30
2023-05-23T07:17:55.192Z,17.51
2023-05-23T07:19:58.139Z,17.14
2023-05-23T07:22:01.516Z,17.08
2023-05-23T07:24:05.601Z,17.09
2023-05-23T07:26:09.858Z,16.91
2023-05-23T07:28:27.253Z,16.56
2023-05-23T07:30:33.186Z,16.99
2023-05-23T07:32:38.140Z,16.91
2023-05-23T07:34:42.844Z,16.74
2023-05-23T07:36:45.717Z,16.55
2023-05-23T07:38:49.646Z,16.36
2023-05-23T07:40:59.217Z,16.43
2023-05-23T07:43:13.339Z,16.71
2023-05-23T07:45:16.167Z,16.83
2023-05-23T07:47:19.817Z,16.69
2023-05-23T07:49:24.662Z,16.32
2023-05-23T07:51:28.809Z,16.04
2023-05-23T07:53:31.815Z,16.03
2023-05-23T07:55:34.803Z,16.07
2023-05-23T07:57:38.174Z,15.86
2023-05-23T07:59:41.024Z,16.13
2023-05-23T08:01:44.865Z,16.15
2023-05-23T08:03:52.401Z,16.36
2023-05-23T08:06:07.421Z,16.15
2023-05-23T08:08:10.536Z,16.12
2023-05-23T08:10:13.831Z,16.09
2023-05-23T08:12:16.711Z,16.26
2023-05-23T08:14:21.712Z,16.56
2023-05-23T08:16:46.350Z,16.85
2023-05-23T08:18:54.548Z,16.30
2023-05-23T08:20:57.495Z,16.32
2023-05-23T08:23:03.201Z,16.30
2023-05-23T08:25:07.181Z,16.06
2023-05-23T08:27:13.778Z,16.42
2023-05-23T08:29:17.521Z,16.26
2023-05-23T08:31:21.892Z,16.16
2023-05-23T08:33:24.858Z,15.96
2023-05-23T08:35:34.945Z,15.79
2023-05-23T08:37:38.593Z,15.84
2023-05-23T08:39:43.513Z,15.15
2023-05-23T08:42:06.997Z,15.56
2023-05-23T08:44:09.789Z,15.61
2023-05-23T08:46:20.833Z,15.86
2023-05-23T08:48:26.233Z,15.87
2023-05-23T08:50:31.231Z,15.88
2023-05-23T08:52:36.307Z,15.97
2023-05-23T08:54:41.066Z,16.31
2023-05-23T08:56:46.075Z,16.20
2023-05-23T08:58:49.028Z,16.34
2023-05-23T09:00:55.505Z,16.37
2023-05-23T09:02:59.510Z,16.55
2023-05-23T09:05:23.189Z,16.44
2023-05-23T09:07:26.720Z,16.34
2023-05-23T09:09:29.651Z,16.17
2023-05-23T09:11:36.271Z,16.21
2023-05-23T09:13:41.808Z,16.07
2023-05-23T09:16:03.837Z,15.91
2023-05-23T09:18:12.306Z,16.14
2023-05-23T09:20:18.232Z,16.19
2023-05-23T09:22:30.280Z,16.97
2023-05-23T09:24:41.577Z,16.91
2023-05-23T09:26:47.958Z,15.90
2023-05-23T09:28:52.588Z,16.70
2023-05-23T09:31:01.002Z,16.26
2023-05-23T09:33:05.841Z,17.48
2023-05-23T09:35:12.331Z,17.46
2023-05-23T09:37:19.043Z,17.42
2023-05-23T09:39:21.909Z,17.63
2023-05-23T09:41:25.109Z,17.98
2023-05-23T09:43:30.179Z,18.13
2023-05-23T09:45:35.103Z,18.08
2023-05-23T09:47:38.341Z,17.98
2023-05-23T09:49:41.418Z,17.92
2023-05-23T09:51:44.385Z,17.61
2023-05-23T09:53:47.339Z,18.18
2023-05-23T09:55:52.482Z,17.89
2023-05-23T09:57:56.717Z,17.29
2023-05-23T10:00:02.256Z,17.77
2023-05-23T10:02:19.564Z,17.58
2023-05-23T10:04:23.536Z,17.72
2023-05-23T10:06:27.845Z,18.05
2023-05-23T10:08:38.716Z,18.25
2023-05-23T10:11:33.843Z,18.21
2023-05-23T10:13:36.861Z,18.59
2023-05-23T10:15:42.058Z,18.05
2023-05-23T10:18:03.814Z,18.05
2023-05-23T10:20:12.481Z,17.93
2023-05-23T10:22:16.861Z,17.74
2023-05-23T10:24:20.648Z,17.64
2023-05-23T10:26:23.604Z,18.12
2023-05-23T10:28:27.383Z,18.25
2023-05-23T10:30:30.256Z,18.09
2023-05-23T10:32:34.800Z,18.23
2023-05-23T10:34:45.871Z,18.40
2023-05-23T10:36:58.102Z,18.48
2023-05-23T10:39:08.809Z,19.14
2023-05-23T10:41:14.598Z,19.49
2023-05-23T10:43:22.067Z,19.83
2023-05-23T10:45:25.754Z,20.31
2023-05-23T10:47:29.252Z,20.21
2023-05-23T10:49:44.669Z,19.11
2023-05-23T10:51:51.263Z,18.91
2023-05-23T10:53:55.698Z,19.30
2023-05-23T10:55:58.605Z,19.65
2023-05-23T10:58:10.987Z,19.98
2023-05-23T11:00:16.877Z,19.92
2023-05-23T11:02:26.590Z,20.23
2023-05-23T11:04:30.616Z,19.22
2023-05-23T11:06:41.090Z,20.17
2023-05-23T11:08:48.929Z,19.50
2023-05-23T11:10:56.177Z,19.26
2023-05-23T11:13:08.279Z,19.18
2023-05-23T11:15:21.554Z,19.35
2023-05-23T11:17:34.869Z,19.56
2023-05-23T11:19:37.804Z,19.78
2023-05-23T11:21:42.585Z,19.94
2023-05-23T11:23:45.414Z,20.39
2023-05-23T11:25:50.896Z,21.29
2023-05-23T11:27:55.189Z,21.62
2023-05-23T11:29:59.868Z,21.01
2023-05-23T11:32:15.969Z,21.03
2023-05-23T11:34:20.076Z,20.03
2023-05-23T11:36:23.459Z,20.03
2023-05-23T11:38:27.841Z,20.65
2023-05-23T11:40:32.624Z,20.67
2023-05-23T11:42:35.586Z,20.77
2023-05-23T11:44:38.375Z,20.42
2023-05-23T11:46:41.589Z,20.64
2023-05-23T11:48:46.416Z,20.42
2023-05-23T11:50:50.401Z,20.76
2023-05-23T11:52:53.345Z,19.93
2023-05-23T11:55:01.375Z,20.68
2023-05-23T11:57:06.570Z,19.75
2023-05-23T11:59:10.146Z,20.38
2023-05-23T12:01:13.900Z,20.57
2023-05-23T12:03:16.994Z,20.53
2023-05-23T12:05:20.073Z,20.09
2023-05-23T12:07:23.151Z,20.32
2023-05-23T12:09:26.533Z,20.01
2023-05-23T12:11:33.962Z,19.91
2023-05-23T12:13:36.785Z,19.91
2023-05-23T12:15:41.019Z,19.96
2023-05-23T12:17:46.641Z,19.77
2023-05-23T12:19:50.692Z,20.22
2023-05-23T12:21:53.464Z,19.30
2023-05-23T12:23:58.063Z,20.06
2023-05-23T12:26:00.989Z,20.64
2023-05-23T12:28:06.054Z,21.43
2023-05-23T12:30:10.971Z,21.97
2023-05-23T12:32:13.858Z,21.80
2023-05-23T12:34:16.654Z,20.83
2023-05-23T12:36:23.575Z,20.27
2023-05-23T12:38:29.351Z,20.23
2023-05-23T12:40:32.234Z,20.82
2023-05-23T12:42:45.639Z,21.32
2023-05-23T12:44:53.257Z,21.30
2023-05-23T12:46:56.074Z,21.62
2023-05-23T12:48:59.474Z,20.76
2023-05-23T12:51:03.143Z,21.61
2023-05-23T12:53:05.984Z,21.03
2023-05-23T12:55:09.597Z,20.74
2023-05-23T12:57:12.387Z,20.76
2023-05-23T12:59:15.176Z,21.04
2023-05-23T13:01:19.581Z,20.67
2023-05-23T13:03:22.437Z,20.18
2023-05-23T13:05:25.252Z,20.54
2023-05-23T13:07:28.118Z,21.04
2023-05-23T13:09:30.863Z,21.71
2023-05-23T13:11:33.808Z,21.19
2023-05-23T13:13:36.649Z,20.66
2023-05-23T13:15:39.564Z,21.35
2023-05-23T13:17:48.070Z,21.00
2023-05-23T13:19:52.897Z,20.92
2023-05-23T13:21:55.751Z,20.27
2023-05-23T13:23:58.514Z,20.17
2023-05-23T13:26:01.404Z,20.26
2023-05-23T13:28:04.389Z,20.93
2023-05-23T13:30:09.383Z,20.86
2023-05-23T13:32:12.201Z,21.77
2023-05-23T13:34:17.081Z,21.43
2023-05-23T13:36:19.947Z,21.98
2023-05-23T13:38:23.743Z,22.80
2023-05-23T13:40:28.226Z,22.98
2023-05-23T13:42:32.932Z,22.20
2023-05-23T13:44:35.725Z,21.75
2023-05-23T13:46:38.588Z,21.33
2023-05-23T13:48:41.734Z,20.90
2023-05-23T13:50:46.209Z,21.73
2023-05-23T13:52:49.658Z,21.63
2023-05-23T13:54:52.866Z,21.40
2023-05-23T13:56:55.666Z,22.18
2023-05-23T13:58:58.421Z,22.33
2023-05-23T14:01:01.190Z,23.00
2023-05-23T14:03:04.353Z,23.09
2023-05-23T14:05:08.752Z,23.26
2023-05-23T14:07:12.945Z,22.89
2023-05-23T14:09:16.295Z,22.33
2023-05-23T14:11:19.111Z,21.65
2023-05-23T14:13:23.102Z,21.25
2023-05-23T14:15:26.314Z,21.93
2023-05-23T14:17:29.134Z,21.80
2023-05-23T14:19:31.929Z,21.77
2023-05-23T14:21:34.988Z,21.13
2023-05-23T14:23:39.350Z,21.48
2023-05-23T14:25:42.701Z,20.56
2023-05-23T14:27:45.933Z,20.96
2023-05-23T14:29:49.747Z,20.93
2023-05-23T14:31:52.747Z,20.84
2023-05-23T14:33:55.555Z,21.14
2023-05-23T14:35:58.353Z,20.31
2023-05-23T14:38:01.172Z,20.57
2023-05-23T14:40:05.635Z,20.97
2023-05-23T14:42:08.549Z,20.94
2023-05-23T14:44:11.349Z,20.88
2023-05-23T14:46:15.485Z,21.41
2023-05-23T14:48:18.357Z,22.21
2023-05-23T14:50:21.244Z,22.07
2023-05-23T14:52:24.129Z,21.54
2023-05-23T14:54:27.512Z,21.10
2023-05-23T14:56:31.678Z,20.95
2023-05-23T14:58:34.661Z,20.73
2023-05-23T15:00:37.414Z,20.69
2023-05-23T15:02:40.307Z,21.90
2023-05-23T15:04:43.403Z,20.44
2023-05-23T15:06:47.179Z,21.53
2023-05-23T15:08:50.193Z,21.21
2023-05-23T15:10:53.033Z,21.42
2023-05-23T15:12:57.303Z,20.50
2023-05-23T15:15:03.723Z,20.16
2023-05-23T15:17:08.600Z,20.17
2023-05-23T15:19:11.391Z,21.50
2023-05-23T15:21:14.238Z,20.39
2023-05-23T15:23:17.212Z,21.35
2023-05-23T15:25:29.764Z,21.77
2023-05-23T15:27:41.455Z,23.21
2023-05-23T15:29:46.234Z,23.47
2023-05-23T15:31:49.108Z,22.80
2023-05-23T15:33:51.897Z,23.03
2023-05-23T15:35:54.892Z,22.49
2023-05-23T15:37:57.704Z,23.10
2023-05-23T15:40:00.632Z,22.62
2023-05-23T15:42:03.458Z,22.57
2023-05-23T15:44:06.310Z,21.72
2023-05-23T15:46:10.541Z,21.78
2023-05-23T15:48:13.494Z,22.04
2023-05-23T15:50:16.916Z,22.42
2023-05-23T15:52:19.693Z,22.69
2023-05-23T15:54:22.492Z,22.33
2023-05-23T15:56:26.058Z,22.85
2023-05-23T15:58:28.855Z,22.82
2023-05-23T16:00:31.681Z,22.31
2023-05-23T16:02:35.817Z,21.33
2023-05-23T16:04:38.980Z,22.37
2023-05-23T16:06:41.762Z,22.94
2023-05-23T16:08:44.585Z,22.69
2023-05-23T16:10:47.340Z,22.87
2023-05-23T16:12:50.122Z,23.68
2023-05-23T16:14:52.878Z,23.63
2023-05-23T16:16:55.713Z,24.09
2023-05-23T16:18:59.863Z,23.63
2023-05-23T16:21:02.620Z,24.15
2023-05-23T16:23:05.421Z,22.58
2023-05-23T16:25:09.533Z,22.73
2023-05-23T16:27:12.329Z,22.64
2023-05-23T16:29:15.099Z,22.98
2023-05-23T16:31:18.184Z,21.94
2023-05-23T16:33:21.082Z,20.98
2023-05-23T16:35:25.227Z,21.90
2023-05-23T16:37:28.016Z,21.89
2023-05-23T16:39:30.792Z,21.94
2023-05-23T16:41:33.585Z,22.28
2023-05-23T16:43:36.460Z,22.83
2023-05-23T16:45:41.760Z,22.16
2023-05-23T16:47:44.968Z,22.34
2023-05-23T16:49:47.818Z,21.12
2023-05-23T16:51:52.032Z,21.05
2023-05-23T16:53:54.808Z,21.55
2023-05-23T16:55:57.826Z,21.39
2023-05-23T16:58:00.590Z,20.42
2023-05-23T17:00:05.379Z,19.64
2023-05-23T17:02:10.825Z,20.66
2023-05-23T17:04:13.690Z,20.91
2023-05-23T17:06:16.522Z,21.98
2023-05-23T17:08:20.665Z,22.32
2023-05-23T17:10:23.607Z,21.97
2023-05-23T17:12:26.958Z,22.67
2023-05-23T17:14:29.859Z,23.25
2023-05-23T17:16:33.754Z,23.21
2023-05-23T17:18:38.106Z,21.29
2023-05-23T17:20:41.580Z,21.45
2023-05-23T17:22:44.353Z,20.10
2023-05-23T17:24:48.538Z,19.97
2023-05-23T17:26:51.359Z,18.60
2023-05-23T17:28:54.284Z,18.77
2023-05-23T17:30:57.147Z,18.53
2023-05-23T17:32:59.985Z,18.41
2023-05-23T17:35:02.898Z,17.83
2023-05-23T17:37:06.130Z,18.38
2023-05-23T17:39:09.879Z,17.97
2023-05-23T17:41:14.645Z,17.76
2023-05-23T17:43:17.576Z,17.57
2023-05-23T17:45:20.489Z,17.60
2023-05-23T17:47:23.300Z,17.39
2023-05-23T17:49:26.288Z,17.13
2023-05-23T17:51:29.125Z,17.36
2023-05-23T17:53:31.933Z,17.14
2023-05-23T17:55:34.808Z,16.54
2023-05-23T17:57:38.916Z,17.27
2023-05-23T17:59:41.718Z,16.90
2023-05-23T18:01:44.668Z,16.91
2023-05-23T18:03:48.977Z,16.46
2023-05-23T18:05:52.152Z,16.55
2023-05-23T18:07:54.972Z,17.16
2023-05-23T18:09:59.642Z,17.34
2023-05-23T18:12:02.661Z,17.14
2023-05-23T18:14:07.233Z,17.11
2023-05-23T18:16:10.053Z,17.44
2023-05-23T18:18:12.883Z,17.43
2023-05-23T18:20:15.962Z,17.40
2023-05-23T18:22:19.898Z,17.06
2023-05-23T18:24:22.854Z,17.11
2023-05-23T18:26:25.665Z,16.87
2023-05-23T18:28:28.546Z,16.79
2023-05-23T18:30:33.432Z,16.85
2023-05-23T18:32:36.372Z,16.74
2023-05-23T18:34:39.212Z,16.40
2023-05-23T18:36:42.013Z,16.69
2023-05-23T18:38:45.610Z,16.53
2023-05-23T18:40:48.458Z,16.29
2023-05-23T18:42:51.364Z,15.47
2023-05-23T18:44:54.152Z,15.80
2023-05-23T18:46:58.304Z,15.53
2023-05-23T18:49:01.141Z,15.31
2023-05-23T18:51:03.974Z,16.17
2023-05-23T18:53:07.369Z,15.51
2023-05-23T18:55:11.280Z,15.68
2023-05-23T18:57:14.138Z,15.38
2023-05-23T18:59:16.992Z,14.51
2023-05-23T19:01:20.067Z,14.93
2023-05-23T19:03:24.278Z,15.20
2023-05-23T19:05:27.364Z,15.04
2023-05-23T19:07:30.381Z,14.80
2023-05-23T19:09:33.183Z,15.19
2023-05-23T19:11:36.224Z,14.88
2023-05-23T19:13:38.983Z,14.59
2023-05-23T19:15:41.753Z,14.67
2023-05-23T19:17:46.568Z,14.35
2023-05-23T19:19:50.852Z,14.57
2023-05-23T19:21:53.720Z,14.50
2023-05-23T19:23:56.486Z,14.41
2023-05-23T19:25:59.274Z,14.31
2023-05-23T19:28:02.066Z,14.23
2023-05-23T19:30:05.852Z,13.97
2023-05-23T19:32:08.803Z,13.79
2023-05-23T19:34:11.675Z,14.05
2023-05-23T19:36:15.830Z,13.94
2023-05-23T19:38:18.605Z,13.52
2023-05-23T19:40:22.346Z,13.97
2023-05-23T19:42:25.323Z,13.60
2023-05-23T19:44:28.076Z,13.64
2023-05-23T19:46:30.865Z,13.72
2023-05-23T19:48:33.651Z,13.63
2023-05-23T19:50:36.537Z,13.09
2023-05-23T19:52:41.934Z,13.76
2023-05-23T19:54:44.960Z,13.81
2023-05-23T19:56:47.876Z,13.64
2023-05-23T19:58:50.639Z,13.56
2023-05-23T20:00:53.724Z,13.29
2023-05-23T20:02:56.752Z,13.45
2023-05-23T20:04:59.636Z,13.40
2023-05-23T20:07:02.417Z,13.20
2023-05-23T20:09:06.738Z,13.33
2023-05-23T20:11:10.222Z,13.21
2023-05-23T20:13:13.008Z,13.30
2023-05-23T20:15:19.657Z,13.27
2023-05-23T20:17:29.249Z,13.29
2023-05-23T20:19:32.188Z,13.42
2023-05-23T20:21:35.194Z,13.32
2023-05-23T20:23:37.927Z,13.33
2023-05-23T20:25:46.554Z,13.15
2023-05-23T20:27:49.345Z,13.10
2023-05-23T20:29:52.558Z,13.16
2023-05-23T20:31:56.048Z,12.91
2023-05-23T20:33:58.768Z,12.96
2023-05-23T20:36:03.663Z,12.86
2023-05-23T20:38:06.376Z,12.87
2023-05-23T20:40:10.357Z,12.81
2023-05-23T20:42:15.092Z,12.76
2023-05-23T20:44:18.295Z,12.88
2023-05-23T20:46:21.114Z,12.96
2023-05-23T20:48:23.960Z,12.86
2023-05-23T20:50:26.883Z,12.42
2023-05-23T20:52:29.651Z,12.81
2023-05-23T20:54:34.442Z,12.48
2023-05-23T20:56:37.416Z,12.86
2023-05-23T20:58:43.110Z,12.86
2023-05-23T21:00:46.128Z,12.42
2023-05-23T21:02:49.061Z,12.96
2023-05-23T21:04:52.006Z,13.15
2023-05-23T21:06:54.814Z,13.06
2023-05-23T21:08:57.574Z,12.93
2023-05-23T21:11:00.484Z,12.95
2023-05-23T21:13:03.303Z,13.03
2023-05-23T21:15:09.798Z,12.99
2023-05-23T21:17:12.659Z,12.95
2023-05-23T21:19:15.584Z,13.01
2023-05-23T21:21:18.358Z,13.13
2023-05-23T21:23:21.133Z,13.28
2023-05-23T21:25:24.092Z,13.31
2023-05-23T21:27:26.965Z,13.20
2023-05-23T21:29:29.707Z,13.55
2023-05-23T21:31:41.649Z,13.24
2023-05-23T21:33:44.768Z,13.39
2023-05-23T21:35:47.721Z,13.16
2023-05-23T21:37:50.793Z,13.29
2023-05-23T21:39:53.836Z,13.36
2023-05-23T21:41:56.556Z,13.27
2023-05-23T21:43:59.353Z,13.31
2023-05-23T21:46:02.228Z,13.26
2023-05-23T21:48:06.733Z,13.05
2023-05-23T21:50:10.527Z,13.10
2023-05-23T21:52:13.291Z,13.37
2023-05-23T21:54:16.152Z,13.41
2023-05-23T21:56:18.874Z,13.42
2023-05-23T21:58:21.599Z,13.18
2023-05-23T22:00:27.125Z,13.56
2023-05-23T22:02:29.941Z,13.45
2023-05-23T22:04:34.205Z,13.67
2023-05-23T22:06:38.594Z,13.60
2023-05-23T22:08:42.039Z,13.56
2023-05-23T22:10:44.806Z,13.68
2023-05-23T22:12:47.607Z,13.82
2023-05-23T22:14:50.491Z,13.15
2023-05-23T22:16:54.365Z,13.39
2023-05-23T22:18:58.129Z,13.44
2023-05-23T22:21:02.529Z,12.63
2023-05-23T22:23:06.210Z,13.54
2023-05-23T22:25:09.773Z,13.54
2023-05-23T22:27:12.705Z,13.52
2023-05-23T22:29:15.692Z,13.36
2023-05-23T22:31:18.546Z,13.24
2023-05-23T22:33:21.351Z,13.24
2023-05-23T22:35:24.352Z,13.48
2023-05-23T22:37:28.527Z,13.63
2023-05-23T22:39:31.487Z,12.86
2023-05-23T22:41:35.827Z,13.51
2023-05-23T22:43:38.683Z,13.40
2023-05-23T22:45:42.529Z,13.31
2023-05-23T22:47:48.424Z,13.16
2023-05-23T22:49:53.964Z,13.11
2023-05-23T22:51:56.902Z,13.22
2023-05-23T22:54:00.955Z,13.18
2023-05-23T22:56:03.694Z,13.42
2023-05-23T22:58:07.848Z,13.28
2023-05-23T23:00:13.473Z,13.26
2023-05-23T23:02:16.327Z,13.25
2023-05-23T23:04:23.416Z,13.47
2023-05-23T23:06:26.643Z,13.16
2023-05-23T23:08:29.392Z,13.31
2023-05-23T23:10:33.451Z,13.23
2023-05-23T23:12:36.586Z,13.31
2023-05-23T23:14:39.300Z,13.27
2023-05-23T23:16:42.680Z,13.27
2023-05-23T23:18:45.493Z,13.06
2023-05-23T23:20:48.358Z,12.78
2023-05-23T23:22:51.373Z,12.96
2023-05-23T23:24:54.160Z,11.50
2023-05-23T23:26:58.217Z,12.89
2023-05-23T23:29:00.929Z,12.84
2023-05-23T23:31:03.737Z,12.79
2023-05-23T23:33:06.554Z,12.73
2023-05-23T23:35:09.840Z,12.71
2023-05-23T23:37:12.548Z,12.49
2023-05-23T23:39:15.260Z,11.39
2023-05-23T23:41:18.004Z,12.61
2023-05-23T23:43:22.126Z,12.05
2023-05-23T23:45:25.067Z,12.53
2023-05-23T23:47:28.082Z,12.52
2023-05-23T23:49:30.812Z,12.51
2023-05-23T23:51:33.608Z,12.65
2023-05-23T23:53:36.590Z,12.75
2023-05-23T23:55:39.370Z,12.56
2023-05-23T23:57:42.111Z,12.45
2023-05-23T23:59:46.179Z,12.53
